Cornion — CQMH — position and weather

sailwx.info

Track history (hours):
 
Tides and Currents Weather Stations Pressure Air Temp Water Temp Dewpoint Dewpoint Depression Visibility Wind Speed Wind Dir Waves Ship Positions

Cornion

Last reported at 2016-Feb-14 20:31 UTC. Time now 2016-Feb-14 21:04 UTC.
Position N 40°39' W 008°44'.

Length 90 m; draft 5 m.

Type: Cargo ship. MMSI: 255803370.

Date/timePositionNaut miles runAvg speedWind from/ knotsBaromVisibWave heightAir tempDewpointWater temp
2016-Feb-14 20:31N 40°39' W 008°44'0 0.0
2016-Feb-14 19:31N 40°39' W 008°44'0 0.0
2016-Feb-14 18:25N 40°39' W 008°44'0 0.0
2016-Feb-14 17:31N 40°39' W 008°44'0 0.0
2016-Feb-14 16:31N 40°39' W 008°44'0 0.0
2016-Feb-14 15:31N 40°39' W 008°44'0 0.0
2016-Feb-14 14:33N 40°39' W 008°44'0 0.0
2016-Feb-14 13:31N 40°39' W 008°44'0 0.0
2016-Feb-14 12:13N 40°39' W 008°44'0 0.0
2016-Feb-14 11:28N 40°39' W 008°44'0 0.0
2016-Feb-14 10:31N 40°39' W 008°44'0 0.0
2016-Feb-14 09:31N 40°39' W 008°44'0 0.0
2016-Feb-14 08:30N 40°39' W 008°44'0 0.0
2016-Feb-14 07:31N 40°39' W 008°44'0 0.0
2016-Feb-14 06:13N 40°39' W 008°44'0 0.0
2016-Feb-14 05:31N 40°39' W 008°44'0 0.0
2016-Feb-14 04:31N 40°39' W 008°44'0 0.0
2016-Feb-14 03:31N 40°39' W 008°44'0 0.0
2016-Feb-14 02:30N 40°39' W 008°44'0 0.0
2016-Feb-14 01:30N 40°39' W 008°44'0 0.0
2016-Feb-14 00:09N 40°39' W 008°44'0 0.0
2016-Feb-13 23:33N 40°39' W 008°44'0 0.0
2016-Feb-13 22:33N 40°39' W 008°44'0 0.0
2016-Feb-13 21:33N 40°39' W 008°44'0 0.0
2016-Feb-13 20:30N 40°39' W 008°44'0 0.0
2016-Feb-13 19:30N 40°39' W 008°44'0 0.0
2016-Feb-13 18:33N 40°39' W 008°44'0 0.0
2016-Feb-13 17:27N 40°39' W 008°44'0 0.0
2016-Feb-13 16:30N 40°39' W 008°44'0 0.0
2016-Feb-13 15:27N 40°39' W 008°44'0 0.0
2016-Feb-13 14:33N 40°39' W 008°44'0 0.0
2016-Feb-13 13:33N 40°39' W 008°44'0 0.0
2016-Feb-13 12:30N 40°39' W 008°44'0 0.0
2016-Feb-13 11:30N 40°39' W 008°44'0 0.0
2016-Feb-13 10:30N 40°39' W 008°44'0 0.0
2016-Feb-13 09:30N 40°39' W 008°44'0 0.0
2016-Feb-13 08:33N 40°39' W 008°44'0 0.0
2016-Feb-13 07:30N 40°39' W 008°44'0 0.0
2016-Feb-13 06:23N 40°39' W 008°44'0 0.0
2016-Feb-13 05:33N 40°39' W 008°44'0 0.0
2016-Feb-13 04:33N 40°39' W 008°44'0 0.0
2016-Feb-13 03:33N 40°39' W 008°44'0 0.0
2016-Feb-13 02:30N 40°39' W 008°44'0 0.0
2016-Feb-13 01:30N 40°39' W 008°44'0 0.0
2016-Feb-13 00:30N 40°39' W 008°44'0 0.0
2016-Feb-12 23:33N 40°39' W 008°44'0 0.0
2016-Feb-12 22:30N 40°39' W 008°44'0 0.0
2016-Feb-12 21:33N 40°39' W 008°44'0 0.0
2016-Feb-12 20:30N 40°39' W 008°44'0 0.0
2016-Feb-12 19:30N 40°39' W 008°44'0 0.0
2016-Feb-12 18:30N 40°39' W 008°44'0 0.0
2016-Feb-12 17:33N 40°39' W 008°44'0 0.0
2016-Feb-12 16:30N 40°39' W 008°44'0 0.0
2016-Feb-12 15:33N 40°39' W 008°44'5 4.6
2016-Feb-12 14:32N 40°40' W 008°50'6 5.8
2016-Feb-12 13:33N 40°38' W 008°57'2 2.0
2016-Feb-12 12:33N 40°38' W 008°54'2 2.3
2016-Feb-12 11:30N 40°38' W 008°57'5 5.5
2016-Feb-12 10:33N 40°36' W 008°51'7 7.2
2016-Feb-12 09:33N 40°30' W 008°55'10 9.5
2016-Feb-12 08:33N 40°22' W 009°02'1110.9
2016-Feb-12 07:33N 40°12' W 009°09'1110.5
2016-Feb-12 06:30N 40°03' W 009°17'1211.1
2016-Feb-12 05:24N 39°53' W 009°25'910.6
2016-Feb-12 04:33N 39°45' W 009°31'1010.3
2016-Feb-12 03:33N 39°36' W 009°37'1010.2
2016-Feb-12 02:33N 39°26' W 009°43'1110.7
2016-Feb-12 01:33N 39°16' W 009°43'1010.6
2016-Feb-12 00:33N 39°05' W 009°43'1110.6
2016-Feb-11 23:33N 38°55' W 009°42'1110.5
2016-Feb-11 22:33N 38°44' W 009°42'10 9.5
2016-Feb-11 21:33N 38°36' W 009°35'1010.3
2016-Feb-11 20:34N 38°29' W 009°26'1010.3
2016-Feb-11 19:33N 38°22' W 009°16'10 9.9
2016-Feb-11 18:33N 38°23' W 009°03'11 9.8
2016-Feb-11 17:29N 38°31' W 008°54'1 0.7
2016-Feb-11 16:33N 38°31' W 008°53'0 0.0
2016-Feb-11 15:30N 38°31' W 008°53'0 0.0
2016-Feb-11 14:30N 38°31' W 008°53'0 0.0
2016-Feb-11 13:33N 38°31' W 008°53'0 0.0
2016-Feb-11 12:27N 38°31' W 008°53'0 0.0
2016-Feb-11 10:33N 38°31' W 008°53'0 0.0
2016-Feb-11 09:30N 38°31' W 008°53'0 0.0
2016-Feb-11 08:33N 38°31' W 008°53'0 0.0
2016-Feb-11 07:33N 38°31' W 008°53'0 0.0
2016-Feb-11 06:33N 38°31' W 008°53'0 0.0
2016-Feb-11 05:33N 38°31' W 008°53'0 0.0
2016-Feb-11 04:33N 38°31' W 008°53'0 0.0
2016-Feb-11 03:30N 38°31' W 008°53'0 0.0
2016-Feb-11 02:33N 38°31' W 008°53'0 0.0
2016-Feb-11 01:33N 38°31' W 008°53'0 0.0
2016-Feb-11 00:33N 38°31' W 008°53'0 0.0
2016-Feb-10 23:30N 38°31' W 008°53'0 0.0
2016-Feb-10 22:33N 38°31' W 008°53'0 0.0
2016-Feb-10 21:30N 38°31' W 008°53'0 0.0
2016-Feb-10 20:33N 38°31' W 008°53'0 0.0
2016-Feb-10 19:34N 38°31' W 008°53'0 0.0
2016-Feb-10 18:31N 38°31' W 008°53'0 0.0
2016-Feb-10 17:30N 38°31' W 008°53'0 0.0
2016-Feb-10 16:33N 38°31' W 008°53'0 0.0
2016-Feb-10 15:34N 38°31' W 008°53'0 0.0
2016-Feb-10 14:27N 38°31' W 008°53'0 0.0
2016-Feb-10 13:28N 38°31' W 008°53'0 0.0
2016-Feb-10 12:25N 38°31' W 008°53'0 0.0
2016-Feb-10 11:33N 38°31' W 008°53'0 0.0
2016-Feb-10 10:18N 38°31' W 008°53'0 0.0
2016-Feb-10 09:32N 38°31' W 008°53'0 0.0
2016-Feb-10 08:31N 38°31' W 008°53'0 0.0
2016-Feb-10 07:31N 38°31' W 008°53'0 0.0
2016-Feb-10 06:31N 38°31' W 008°53'0 0.0
2016-Feb-10 05:33N 38°31' W 008°53'0 0.0
2016-Feb-10 04:27N 38°31' W 008°53'0 0.0
2016-Feb-10 03:19N 38°31' W 008°53'0 0.0
2016-Feb-10 02:33N 38°31' W 008°53'0 0.0
2016-Feb-10 01:33N 38°31' W 008°53'0 0.0
2016-Feb-10 00:31N 38°31' W 008°53'0 0.0
2016-Feb-09 23:34N 38°31' W 008°53'0 0.0
2016-Feb-09 22:25N 38°31' W 008°53'0 0.0
2016-Feb-09 21:12N 38°31' W 008°53'0 0.0
2016-Feb-09 20:33N 38°31' W 008°53'0 0.0
2016-Feb-09 19:30N 38°31' W 008°53'0 0.0
2016-Feb-09 18:24N 38°31' W 008°53'0 0.0
2016-Feb-09 17:32N 38°31' W 008°53'3 3.0
2016-Feb-09 16:33N 38°29' W 008°56'6 6.5
2016-Feb-09 15:33N 38°23' W 008°59'1 1.1
2016-Feb-09 14:33N 38°24' W 008°59'1010.1
2016-Feb-09 13:33N 38°14' W 009°02'10 9.9
2016-Feb-09 12:33N 38°05' W 009°04'10 9.9
2016-Feb-09 11:33N 37°55' W 009°06'1010.1
2016-Feb-09 10:33N 37°45' W 009°09'1010.0
2016-Feb-09 09:33N 37°35' W 009°11'1110.8
2016-Feb-09 08:30N 37°24' W 009°14'9 9.5
2016-Feb-09 07:33N 37°15' W 009°16'1010.0
2016-Feb-09 06:33N 37°05' W 009°18'1010.1
2016-Feb-09 05:33N 36°55' W 009°19'10 9.2
2016-Feb-09 04:30N 36°47' W 009°11'9 9.5
2016-Feb-09 03:30N 36°43' W 009°01'9 9.4
2016-Feb-09 02:33N 36°40' W 008°50'1010.1
2016-Feb-09 01:33N 36°38' W 008°38'1010.1
2016-Feb-09 00:34N 36°35' W 008°26'1110.1
2016-Feb-08 23:27N 36°31' W 008°13'13110.1
2016-Feb-08 10:28N 35°58' W 005°36'8 8.5
2016-Feb-08 09:34N 35°60' W 005°27'7 7.0
2016-Feb-08 08:33N 36°03' W 005°19'319 8.1
2016-Feb-06 17:04N 37°55' E 000°55'510.8
2016-Feb-06 16:33N 37°58' E 001°01'4310.6
2016-Feb-06 12:30N 38°22' E 001°47'1111.2
2016-Feb-06 11:33N 38°28' E 001°58'1210.9
2016-Feb-06 10:28N 38°34' E 002°10'1011.1
2016-Feb-06 09:33N 38°40' E 002°21'1010.5
2016-Feb-06 08:33N 38°46' E 002°32'1110.7
2016-Feb-06 07:33N 38°52' E 002°44'1110.6
2016-Feb-06 06:33N 38°58' E 002°55'1110.7
2016-Feb-06 05:33N 39°04' E 003°06'1010.6
2016-Feb-06 04:33N 39°10' E 003°18'1210.4
2016-Feb-06 03:23N 39°17' E 003°30'910.4
2016-Feb-06 02:32N 39°22' E 003°39'1310.6
2016-Feb-06 01:21N 39°29' E 003°53'  
Track history (hours):
 
Tides and Currents Weather Stations Pressure Air Temp Water Temp Dewpoint Dewpoint Depression Visibility Wind Speed Wind Dir Waves Ship Positions

Cornion

Last reported at 2016-Feb-14 20:31 UTC. Time now 2016-Feb-14 21:04 UTC.
Position N 40°39' W 008°44'.

Length 90 m; draft 5 m.

Type: Cargo ship. MMSI: 255803370.

Date/timePositionNaut miles runAvg speedWind from/ knotsBaromVisibWave heightAir tempDewpointWater temp
2016-Feb-14 20:31N 40°39' W 008°44'0 0.0
2016-Feb-14 19:31N 40°39' W 008°44'0 0.0
2016-Feb-14 18:25N 40°39' W 008°44'0 0.0
2016-Feb-14 17:31N 40°39' W 008°44'0 0.0
2016-Feb-14 16:31N 40°39' W 008°44'0 0.0
2016-Feb-14 15:31N 40°39' W 008°44'0 0.0
2016-Feb-14 14:33N 40°39' W 008°44'0 0.0
2016-Feb-14 13:31N 40°39' W 008°44'0 0.0
2016-Feb-14 12:13N 40°39' W 008°44'0 0.0
2016-Feb-14 11:28N 40°39' W 008°44'0 0.0
2016-Feb-14 10:31N 40°39' W 008°44'0 0.0
2016-Feb-14 09:31N 40°39' W 008°44'0 0.0
2016-Feb-14 08:30N 40°39' W 008°44'0 0.0
2016-Feb-14 07:31N 40°39' W 008°44'0 0.0
2016-Feb-14 06:13N 40°39' W 008°44'0 0.0
2016-Feb-14 05:31N 40°39' W 008°44'0 0.0
2016-Feb-14 04:31N 40°39' W 008°44'0 0.0
2016-Feb-14 03:31N 40°39' W 008°44'0 0.0
2016-Feb-14 02:30N 40°39' W 008°44'0 0.0
2016-Feb-14 01:30N 40°39' W 008°44'0 0.0
2016-Feb-14 00:09N 40°39' W 008°44'0 0.0
2016-Feb-13 23:33N 40°39' W 008°44'0 0.0
2016-Feb-13 22:33N 40°39' W 008°44'0 0.0
2016-Feb-13 21:33N 40°39' W 008°44'0 0.0
2016-Feb-13 20:30N 40°39' W 008°44'0 0.0
2016-Feb-13 19:30N 40°39' W 008°44'0 0.0
2016-Feb-13 18:33N 40°39' W 008°44'0 0.0
2016-Feb-13 17:27N 40°39' W 008°44'0 0.0
2016-Feb-13 16:30N 40°39' W 008°44'0 0.0
2016-Feb-13 15:27N 40°39' W 008°44'0 0.0
2016-Feb-13 14:33N 40°39' W 008°44'0 0.0
2016-Feb-13 13:33N 40°39' W 008°44'0 0.0
2016-Feb-13 12:30N 40°39' W 008°44'0 0.0
2016-Feb-13 11:30N 40°39' W 008°44'0 0.0
2016-Feb-13 10:30N 40°39' W 008°44'0 0.0
2016-Feb-13 09:30N 40°39' W 008°44'0 0.0
2016-Feb-13 08:33N 40°39' W 008°44'0 0.0
2016-Feb-13 07:30N 40°39' W 008°44'0 0.0
2016-Feb-13 06:23N 40°39' W 008°44'0 0.0
2016-Feb-13 05:33N 40°39' W 008°44'0 0.0
2016-Feb-13 04:33N 40°39' W 008°44'0 0.0
2016-Feb-13 03:33N 40°39' W 008°44'0 0.0
2016-Feb-13 02:30N 40°39' W 008°44'0 0.0
2016-Feb-13 01:30N 40°39' W 008°44'0 0.0
2016-Feb-13 00:30N 40°39' W 008°44'0 0.0
2016-Feb-12 23:33N 40°39' W 008°44'0 0.0
2016-Feb-12 22:30N 40°39' W 008°44'0 0.0
2016-Feb-12 21:33N 40°39' W 008°44'0 0.0
2016-Feb-12 20:30N 40°39' W 008°44'0 0.0
2016-Feb-12 19:30N 40°39' W 008°44'0 0.0
2016-Feb-12 18:30N 40°39' W 008°44'0 0.0
2016-Feb-12 17:33N 40°39' W 008°44'0 0.0
2016-Feb-12 16:30N 40°39' W 008°44'0 0.0
2016-Feb-12 15:33N 40°39' W 008°44'5 4.6
2016-Feb-12 14:32N 40°40' W 008°50'6 5.8
2016-Feb-12 13:33N 40°38' W 008°57'2 2.0
2016-Feb-12 12:33N 40°38' W 008°54'2 2.3
2016-Feb-12 11:30N 40°38' W 008°57'5 5.5
2016-Feb-12 10:33N 40°36' W 008°51'7 7.2
2016-Feb-12 09:33N 40°30' W 008°55'10 9.5
2016-Feb-12 08:33N 40°22' W 009°02'1110.9
2016-Feb-12 07:33N 40°12' W 009°09'1110.5
2016-Feb-12 06:30N 40°03' W 009°17'1211.1
2016-Feb-12 05:24N 39°53' W 009°25'910.6
2016-Feb-12 04:33N 39°45' W 009°31'1010.3
2016-Feb-12 03:33N 39°36' W 009°37'1010.2
2016-Feb-12 02:33N 39°26' W 009°43'1110.7
2016-Feb-12 01:33N 39°16' W 009°43'1010.6
2016-Feb-12 00:33N 39°05' W 009°43'1110.6
2016-Feb-11 23:33N 38°55' W 009°42'1110.5
2016-Feb-11 22:33N 38°44' W 009°42'10 9.5
2016-Feb-11 21:33N 38°36' W 009°35'1010.3
2016-Feb-11 20:34N 38°29' W 009°26'1010.3
2016-Feb-11 19:33N 38°22' W 009°16'10 9.9
2016-Feb-11 18:33N 38°23' W 009°03'11 9.8
2016-Feb-11 17:29N 38°31' W 008°54'1 0.7
2016-Feb-11 16:33N 38°31' W 008°53'0 0.0
2016-Feb-11 15:30N 38°31' W 008°53'0 0.0
2016-Feb-11 14:30N 38°31' W 008°53'0 0.0
2016-Feb-11 13:33N 38°31' W 008°53'0 0.0
2016-Feb-11 12:27N 38°31' W 008°53'0 0.0
2016-Feb-11 10:33N 38°31' W 008°53'0 0.0
2016-Feb-11 09:30N 38°31' W 008°53'0 0.0
2016-Feb-11 08:33N 38°31' W 008°53'0 0.0
2016-Feb-11 07:33N 38°31' W 008°53'0 0.0
2016-Feb-11 06:33N 38°31' W 008°53'0 0.0
2016-Feb-11 05:33N 38°31' W 008°53'0 0.0
2016-Feb-11 04:33N 38°31' W 008°53'0 0.0
2016-Feb-11 03:30N 38°31' W 008°53'0 0.0
2016-Feb-11 02:33N 38°31' W 008°53'0 0.0
2016-Feb-11 01:33N 38°31' W 008°53'0 0.0
2016-Feb-11 00:33N 38°31' W 008°53'0 0.0
2016-Feb-10 23:30N 38°31' W 008°53'0 0.0
2016-Feb-10 22:33N 38°31' W 008°53'0 0.0
2016-Feb-10 21:30N 38°31' W 008°53'0 0.0
2016-Feb-10 20:33N 38°31' W 008°53'0 0.0
2016-Feb-10 19:34N 38°31' W 008°53'0 0.0
2016-Feb-10 18:31N 38°31' W 008°53'0 0.0
2016-Feb-10 17:30N 38°31' W 008°53'0 0.0
2016-Feb-10 16:33N 38°31' W 008°53'0 0.0
2016-Feb-10 15:34N 38°31' W 008°53'0 0.0
2016-Feb-10 14:27N 38°31' W 008°53'0 0.0
2016-Feb-10 13:28N 38°31' W 008°53'0 0.0
2016-Feb-10 12:25N 38°31' W 008°53'0 0.0
2016-Feb-10 11:33N 38°31' W 008°53'0 0.0
2016-Feb-10 10:18N 38°31' W 008°53'0 0.0
2016-Feb-10 09:32N 38°31' W 008°53'0 0.0
2016-Feb-10 08:31N 38°31' W 008°53'0 0.0
2016-Feb-10 07:31N 38°31' W 008°53'0 0.0
2016-Feb-10 06:31N 38°31' W 008°53'0 0.0
2016-Feb-10 05:33N 38°31' W 008°53'0 0.0
2016-Feb-10 04:27N 38°31' W 008°53'0 0.0
2016-Feb-10 03:19N 38°31' W 008°53'0 0.0
2016-Feb-10 02:33N 38°31' W 008°53'0 0.0
2016-Feb-10 01:33N 38°31' W 008°53'0 0.0
2016-Feb-10 00:31N 38°31' W 008°53'0 0.0
2016-Feb-09 23:34N 38°31' W 008°53'0 0.0
2016-Feb-09 22:25N 38°31' W 008°53'0 0.0
2016-Feb-09 21:12N 38°31' W 008°53'0 0.0
2016-Feb-09 20:33N 38°31' W 008°53'0 0.0
2016-Feb-09 19:30N 38°31' W 008°53'0 0.0
2016-Feb-09 18:24N 38°31' W 008°53'0 0.0
2016-Feb-09 17:32N 38°31' W 008°53'3 3.0
2016-Feb-09 16:33N 38°29' W 008°56'6 6.5
2016-Feb-09 15:33N 38°23' W 008°59'1 1.1
2016-Feb-09 14:33N 38°24' W 008°59'1010.1
2016-Feb-09 13:33N 38°14' W 009°02'10 9.9
2016-Feb-09 12:33N 38°05' W 009°04'10 9.9
2016-Feb-09 11:33N 37°55' W 009°06'1010.1
2016-Feb-09 10:33N 37°45' W 009°09'1010.0
2016-Feb-09 09:33N 37°35' W 009°11'1110.8
2016-Feb-09 08:30N 37°24' W 009°14'9 9.5
2016-Feb-09 07:33N 37°15' W 009°16'1010.0
2016-Feb-09 06:33N 37°05' W 009°18'1010.1
2016-Feb-09 05:33N 36°55' W 009°19'10 9.2
2016-Feb-09 04:30N 36°47' W 009°11'9 9.5
2016-Feb-09 03:30N 36°43' W 009°01'9 9.4
2016-Feb-09 02:33N 36°40' W 008°50'1010.1
2016-Feb-09 01:33N 36°38' W 008°38'1010.1
2016-Feb-09 00:34N 36°35' W 008°26'1110.1
2016-Feb-08 23:27N 36°31' W 008°13'13110.1
2016-Feb-08 10:28N 35°58' W 005°36'8 8.5
2016-Feb-08 09:34N 35°60' W 005°27'7 7.0
2016-Feb-08 08:33N 36°03' W 005°19'319 8.1
2016-Feb-06 17:04N 37°55' E 000°55'510.8
2016-Feb-06 16:33N 37°58' E 001°01'4310.6
2016-Feb-06 12:30N 38°22' E 001°47'1111.2
2016-Feb-06 11:33N 38°28' E 001°58'1210.9
2016-Feb-06 10:28N 38°34' E 002°10'1011.1
2016-Feb-06 09:33N 38°40' E 002°21'1010.5
2016-Feb-06 08:33N 38°46' E 002°32'1110.7
2016-Feb-06 07:33N 38°52' E 002°44'1110.6
2016-Feb-06 06:33N 38°58' E 002°55'1110.7
2016-Feb-06 05:33N 39°04' E 003°06'1010.6
2016-Feb-06 04:33N 39°10' E 003°18'1210.4
2016-Feb-06 03:23N 39°17' E 003°30'910.4
2016-Feb-06 02:32N 39°22' E 003°39'1310.6
2016-Feb-06 01:21N 39°29' E 003°53'  

Dump ship's entire track history